createdAt,value
2022-10-25T00:00:06.005Z,99.99
2022-10-25T00:01:06.117Z,99.99
2022-10-25T00:02:06.216Z,99.99
2022-10-25T00:03:05.969Z,99.99
2022-10-25T00:04:05.960Z,99.99
2022-10-25T00:05:05.984Z,99.99
2022-10-25T00:06:05.946Z,99.99
2022-10-25T00:07:05.985Z,99.99
2022-10-25T00:08:05.918Z,99.99
2022-10-25T00:09:05.916Z,99.99
2022-10-25T00:10:05.908Z,99.99
2022-10-25T00:11:05.888Z,99.99
2022-10-25T00:12:05.874Z,99.99
2022-10-25T00:13:06.032Z,99.99
2022-10-25T00:14:05.853Z,99.99
2022-10-25T00:15:05.838Z,99.99
2022-10-25T00:16:05.831Z,99.99
2022-10-25T00:17:05.817Z,99.99
2022-10-25T00:18:05.809Z,99.99
2022-10-25T00:19:05.863Z,99.99
2022-10-25T00:20:05.786Z,99.99
2022-10-25T00:21:05.799Z,99.99
2022-10-25T00:22:05.765Z,99.99
2022-10-25T00:23:05.779Z,99.99
2022-10-25T00:24:05.744Z,99.99
2022-10-25T00:25:05.814Z,99.99
2022-10-25T00:26:05.724Z,99.99
2022-10-25T00:27:05.707Z,99.99
2022-10-25T00:28:05.701Z,99.99
2022-10-25T00:29:05.698Z,99.99
2022-10-25T00:30:05.677Z,99.99
2022-10-25T00:31:05.716Z,99.99
2022-10-25T00:32:05.656Z,99.99
2022-10-25T00:33:05.643Z,99.99
2022-10-25T00:34:05.646Z,99.99
2022-10-25T00:35:05.624Z,99.99
2022-10-25T00:36:05.612Z,99.99
2022-10-25T00:37:05.675Z,99.99
2022-10-25T00:38:05.591Z,99.99
2022-10-25T00:39:05.577Z,99.99
2022-10-25T00:40:05.581Z,99.99
2022-10-25T00:41:05.555Z,99.99
2022-10-25T00:42:05.548Z,99.99
2022-10-25T00:43:05.604Z,99.99
2022-10-25T00:44:05.540Z,99.99
2022-10-25T00:45:05.518Z,99.99
2022-10-25T00:46:05.524Z,99.99
2022-10-25T00:47:05.492Z,99.99
2022-10-25T00:48:05.484Z,99.99
2022-10-25T00:49:05.570Z,99.99
2022-10-25T00:50:05.468Z,99.99
2022-10-25T00:51:05.484Z,99.99
2022-10-25T00:52:05.440Z,99.99
2022-10-25T00:53:05.451Z,99.99
2022-10-25T00:54:05.432Z,99.99
2022-10-25T00:55:05.471Z,99.99
2022-10-25T00:56:05.414Z,99.99
2022-10-25T00:57:05.388Z,99.99
2022-10-25T00:58:05.442Z,99.99
2022-10-25T00:59:05.362Z,99.99
2022-10-25T01:00:05.368Z,99.99
2022-10-25T01:01:05.424Z,99.99
2022-10-25T01:02:05.478Z,99.99
2022-10-25T01:03:05.411Z,99.99
2022-10-25T01:04:05.307Z,99.99
2022-10-25T01:05:05.307Z,99.99
2022-10-25T01:06:05.286Z,99.99
2022-10-25T01:07:05.276Z,99.99
2022-10-25T01:08:05.267Z,99.99
2022-10-25T01:09:05.312Z,99.99
2022-10-25T01:10:05.243Z,99.99
2022-10-25T01:11:05.330Z,99.99
2022-10-25T01:12:05.221Z,99.99
2022-10-25T01:13:05.209Z,99.99
2022-10-25T01:14:05.200Z,99.99
2022-10-25T01:15:05.272Z,99.99
2022-10-25T01:16:05.196Z,99.99
2022-10-25T01:17:05.170Z,99.99
2022-10-25T01:18:05.155Z,99.99
2022-10-25T01:19:05.144Z,99.99
2022-10-25T01:20:05.135Z,99.99
2022-10-25T01:21:05.165Z,99.99
2022-10-25T01:22:05.122Z,99.99
2022-10-25T01:23:05.109Z,99.99
2022-10-25T01:24:05.090Z,99.99
2022-10-25T01:25:05.110Z,99.99
2022-10-25T01:26:05.075Z,99.99
2022-10-25T01:27:05.131Z,99.99
2022-10-25T01:28:05.045Z,99.99
2022-10-25T01:29:05.039Z,99.99
2022-10-25T01:30:05.036Z,99.99
2022-10-25T01:31:05.022Z,99.99
2022-10-25T01:32:05.004Z,99.99
2022-10-25T01:33:05.080Z,99.99
2022-10-25T01:34:04.981Z,99.99
2022-10-25T01:35:04.990Z,99.99
2022-10-25T01:36:05.010Z,99.99
2022-10-25T01:37:04.957Z,99.99
2022-10-25T01:38:04.937Z,99.99
2022-10-25T01:39:05.026Z,99.99
2022-10-25T01:40:04.915Z,99.99
2022-10-25T01:41:05.034Z,99.99
2022-10-25T01:42:04.893Z,99.99
2022-10-25T01:43:04.885Z,99.99
2022-10-25T01:44:04.875Z,99.99
2022-10-25T01:45:04.992Z,99.99
2022-10-25T01:46:04.850Z,99.99
2022-10-25T01:47:04.858Z,99.99
2022-10-25T01:48:04.831Z,99.99
2022-10-25T01:49:04.821Z,99.99
2022-10-25T01:50:04.809Z,99.99
2022-10-25T01:51:04.881Z,99.99
2022-10-25T01:52:04.786Z,99.99
2022-10-25T01:53:04.794Z,99.99
2022-10-25T01:54:04.763Z,99.99
2022-10-25T01:55:04.830Z,99.99
2022-10-25T01:56:04.742Z,99.99
2022-10-25T01:57:04.806Z,99.99
2022-10-25T01:58:04.729Z,99.99
2022-10-25T01:59:04.722Z,99.99
2022-10-25T02:00:04.701Z,99.99
2022-10-25T02:01:04.755Z,99.99
2022-10-25T02:02:04.676Z,99.99
2022-10-25T02:03:04.753Z,99.99
2022-10-25T02:04:04.655Z,99.99
2022-10-25T02:05:04.660Z,99.99
2022-10-25T02:06:04.636Z,99.99
2022-10-25T02:07:04.631Z,99.99
2022-10-25T02:08:04.612Z,99.99
2022-10-25T02:09:04.663Z,99.99
2022-10-25T02:11:04.593Z,99.99
2022-10-25T02:12:04.570Z,99.99
2022-10-25T02:13:04.589Z,99.99
2022-10-25T02:14:04.561Z,99.99
2022-10-25T02:15:04.574Z,99.99
2022-10-25T02:16:04.541Z,99.99
2022-10-25T02:17:04.519Z,99.99
2022-10-25T02:18:04.507Z,99.99
2022-10-25T02:19:04.506Z,99.99
2022-10-25T02:20:04.488Z,99.99
2022-10-25T02:21:04.614Z,99.99
2022-10-25T02:22:04.468Z,99.99
2022-10-25T02:23:04.451Z,99.99
2022-10-25T02:24:04.481Z,99.99
2022-10-25T02:25:04.537Z,99.99
2022-10-25T02:26:04.448Z,99.99
2022-10-25T02:27:04.483Z,99.99
2022-10-25T02:28:04.399Z,99.99
2022-10-25T02:29:04.403Z,99.99
2022-10-25T02:30:04.377Z,99.99
2022-10-25T02:31:04.373Z,99.99
2022-10-25T02:32:04.451Z,99.99
2022-10-25T02:33:04.344Z,99.99
2022-10-25T02:34:04.335Z,99.99
2022-10-25T02:35:04.399Z,99.99
2022-10-25T02:36:04.311Z,99.99
2022-10-25T02:37:04.314Z,99.99
2022-10-25T02:38:04.375Z,99.99
2022-10-25T02:39:04.300Z,99.99
2022-10-25T02:40:04.269Z,99.99
2022-10-25T02:41:04.257Z,99.99
2022-10-25T02:42:04.246Z,99.99
2022-10-25T02:43:04.233Z,99.99
2022-10-25T02:44:04.428Z,99.99
2022-10-25T02:45:04.235Z,99.99
2022-10-25T02:46:04.203Z,99.99
2022-10-25T02:47:04.191Z,99.99
2022-10-25T02:48:04.186Z,99.99
2022-10-25T02:49:04.169Z,99.99
2022-10-25T02:50:04.258Z,99.99
2022-10-25T02:51:04.149Z,99.99
2022-10-25T02:52:04.141Z,99.99
2022-10-25T02:53:04.144Z,99.99
2022-10-25T02:54:04.118Z,99.99
2022-10-25T02:55:04.104Z,99.99
2022-10-25T02:56:04.178Z,99.99
2022-10-25T02:57:04.082Z,99.99
2022-10-25T02:58:04.073Z,99.99
2022-10-25T02:59:04.074Z,99.99
2022-10-25T03:00:04.109Z,99.99
2022-10-25T03:01:04.192Z,99.99
2022-10-25T03:02:04.092Z,99.99
2022-10-25T03:03:04.017Z,99.99
2022-10-25T03:04:04.010Z,99.99
2022-10-25T03:05:04.010Z,99.99
2022-10-25T03:06:03.986Z,99.99
2022-10-25T03:07:03.985Z,99.99
2022-10-25T03:08:04.050Z,99.99
2022-10-25T03:09:03.955Z,99.99
2022-10-25T03:10:03.944Z,99.99
2022-10-25T03:11:03.944Z,99.99
2022-10-25T03:12:03.923Z,99.99
2022-10-25T03:13:03.909Z,99.99
2022-10-25T03:14:03.960Z,99.99
2022-10-25T03:15:03.886Z,99.99
2022-10-25T03:16:03.889Z,99.99
2022-10-25T03:17:03.888Z,99.99
2022-10-25T03:18:03.857Z,99.99
2022-10-25T03:19:03.848Z,99.99
2022-10-25T03:20:03.962Z,99.99
2022-10-25T03:21:03.824Z,99.99
2022-10-25T03:22:03.828Z,99.99
2022-10-25T03:23:03.801Z,99.99
2022-10-25T03:24:03.795Z,99.99
2022-10-25T03:25:03.849Z,99.99
2022-10-25T03:26:03.844Z,99.99
2022-10-25T03:27:03.759Z,99.99
2022-10-25T03:28:03.762Z,99.99
2022-10-25T03:29:03.739Z,99.99
2022-10-25T03:30:03.727Z,99.99
2022-10-25T03:31:03.719Z,99.99
2022-10-25T03:32:03.772Z,99.99
2022-10-25T03:33:03.715Z,99.99
2022-10-25T03:34:03.697Z,99.99
2022-10-25T03:35:03.686Z,99.99
2022-10-25T03:36:03.664Z,99.99
2022-10-25T03:37:03.653Z,99.99
2022-10-25T03:38:03.690Z,99.99
2022-10-25T03:39:03.628Z,99.99
2022-10-25T03:40:03.633Z,99.99
2022-10-25T03:41:03.607Z,99.99
2022-10-25T03:42:03.611Z,99.99
2022-10-25T03:43:03.586Z,99.99
2022-10-25T03:44:03.661Z,99.99
2022-10-25T03:45:03.564Z,99.99
2022-10-25T03:46:03.578Z,99.99
2022-10-25T03:47:03.542Z,99.99
2022-10-25T03:48:03.536Z,99.99
2022-10-25T03:49:03.558Z,99.99
2022-10-25T03:50:03.598Z,99.99
2022-10-25T03:51:03.502Z,99.99
2022-10-25T03:52:05.150Z,99.99
2022-10-25T03:53:03.585Z,99.99
2022-10-25T03:54:03.481Z,99.99
2022-10-25T03:55:03.459Z,99.99
2022-10-25T03:56:03.450Z,99.99
2022-10-25T03:57:03.434Z,99.99
2022-10-25T03:58:03.441Z,99.99
2022-10-25T03:59:03.415Z,99.99
2022-10-25T04:00:03.409Z,99.99
2022-10-25T04:01:03.616Z,99.99
2022-10-25T04:02:03.472Z,99.99
2022-10-25T04:03:03.466Z,99.99
2022-10-25T04:04:03.366Z,99.99
2022-10-25T04:05:03.373Z,99.99
2022-10-25T04:06:03.453Z,99.99
2022-10-25T04:07:03.337Z,99.99
2022-10-25T04:08:03.330Z,99.99
2022-10-25T04:09:03.321Z,99.99
2022-10-25T04:10:03.300Z,99.99
2022-10-25T04:11:03.284Z,99.99
2022-10-25T04:12:03.353Z,99.99
2022-10-25T04:13:03.276Z,99.99
2022-10-25T04:14:03.255Z,99.99
2022-10-25T04:15:03.244Z,99.99
2022-10-25T04:16:03.237Z,99.99
2022-10-25T04:17:03.220Z,99.99
2022-10-25T04:18:03.288Z,99.99
2022-10-25T04:19:03.307Z,99.99
2022-10-25T04:20:03.191Z,99.99
2022-10-25T04:21:03.197Z,99.99
2022-10-25T04:22:03.175Z,99.99
2022-10-25T04:23:03.174Z,99.99
2022-10-25T04:24:04.413Z,99.99
2022-10-25T04:25:03.150Z,99.99
2022-10-25T04:26:03.141Z,99.99
2022-10-25T04:27:03.111Z,99.99
2022-10-25T04:28:03.102Z,99.99
2022-10-25T04:29:03.092Z,99.99
2022-10-25T04:30:03.127Z,99.99
2022-10-25T04:31:03.084Z,99.99
2022-10-25T04:32:03.061Z,99.99
2022-10-25T04:33:03.048Z,99.99
2022-10-25T04:34:03.039Z,99.99
2022-10-25T04:35:03.026Z,99.99
2022-10-25T04:36:03.116Z,99.99
2022-10-25T04:37:03.036Z,99.99
2022-10-25T04:38:02.996Z,99.99
2022-10-25T04:39:02.982Z,99.99
2022-10-25T04:40:02.979Z,99.99
2022-10-25T04:41:02.975Z,99.99
2022-10-25T04:42:03.123Z,99.99
2022-10-25T04:43:02.942Z,99.99
2022-10-25T04:44:02.989Z,99.99
2022-10-25T04:45:02.918Z,99.99
2022-10-25T04:46:02.914Z,99.99
2022-10-25T04:47:02.900Z,99.99
2022-10-25T04:48:03.003Z,99.99
2022-10-25T04:49:02.877Z,99.99
2022-10-25T04:50:02.879Z,99.99
2022-10-25T04:51:02.856Z,99.99
2022-10-25T04:52:02.846Z,99.99
2022-10-25T04:53:02.863Z,99.99
2022-10-25T04:54:02.881Z,99.99
2022-10-25T04:55:02.810Z,99.99
2022-10-25T04:56:02.804Z,99.99
2022-10-25T04:57:02.811Z,99.99
2022-10-25T04:58:02.781Z,99.99
2022-10-25T04:59:02.768Z,99.99
2022-10-25T05:00:02.848Z,99.99
2022-10-25T05:01:02.813Z,99.99
2022-10-25T05:02:02.738Z,99.99
2022-10-25T05:03:02.776Z,99.99
2022-10-25T05:04:02.717Z,99.99
2022-10-25T05:05:02.715Z,99.99
2022-10-25T05:06:02.782Z,99.99
2022-10-25T05:07:02.696Z,99.99
2022-10-25T05:08:02.675Z,99.99
2022-10-25T05:09:02.712Z,99.99
2022-10-25T05:10:02.650Z,99.99
2022-10-25T05:11:02.654Z,99.99
2022-10-25T05:12:02.670Z,99.99
2022-10-25T05:13:02.617Z,99.99
2022-10-25T05:14:02.610Z,99.99
2022-10-25T05:15:02.595Z,99.99
2022-10-25T05:16:02.585Z,99.99
2022-10-25T05:17:02.584Z,99.99
2022-10-25T05:18:02.606Z,99.99
2022-10-25T05:19:02.551Z,99.99
2022-10-25T05:20:02.561Z,99.99
2022-10-25T05:21:02.529Z,99.99
2022-10-25T05:22:02.557Z,99.99
2022-10-25T05:23:02.509Z,99.99
2022-10-25T05:24:02.775Z,99.99
2022-10-25T05:25:02.513Z,99.99
2022-10-25T05:26:02.482Z,99.99
2022-10-25T05:27:02.477Z,99.99
2022-10-25T05:28:02.456Z,99.99
2022-10-25T05:29:04.579Z,99.99
2022-10-25T05:30:03.539Z,99.99
2022-10-25T05:31:02.468Z,99.99
2022-10-25T05:32:02.430Z,99.99
2022-10-25T05:33:04.154Z,99.99
2022-10-25T05:34:02.400Z,99.99
2022-10-25T05:35:02.403Z,99.99
2022-10-25T05:36:02.381Z,99.99
2022-10-25T05:37:02.368Z,99.99
2022-10-25T05:38:02.371Z,99.99
2022-10-25T05:39:02.335Z,99.99
2022-10-25T05:40:02.348Z,99.99
2022-10-25T05:41:02.356Z,99.99
2022-10-25T05:42:02.442Z,99.99
2022-10-25T05:43:02.309Z,99.99
2022-10-25T05:44:02.291Z,99.99
2022-10-25T05:45:02.275Z,99.99
2022-10-25T05:46:02.377Z,99.99
2022-10-25T05:47:02.248Z,99.99
2022-10-25T05:48:02.240Z,99.99
2022-10-25T05:49:02.339Z,99.99
2022-10-25T05:50:02.250Z,99.99
2022-10-25T05:51:14.361Z,99.99
2022-10-25T05:52:03.196Z,99.99
2022-10-25T05:53:02.198Z,99.99
2022-10-25T05:54:02.256Z,99.99
2022-10-25T05:55:02.162Z,99.99
2022-10-25T05:56:02.154Z,99.99
2022-10-25T05:57:02.161Z,99.99
2022-10-25T05:58:02.132Z,99.99
2022-10-25T05:59:02.131Z,99.99
2022-10-25T06:00:02.205Z,99.99
2022-10-25T06:01:02.191Z,99.99
2022-10-25T06:02:02.205Z,99.99
2022-10-25T06:03:02.079Z,99.99
2022-10-25T06:04:02.066Z,99.99
2022-10-25T06:05:02.066Z,99.99
2022-10-25T06:06:02.131Z,99.99
2022-10-25T06:07:02.033Z,99.99
2022-10-25T06:08:02.024Z,99.99
2022-10-25T06:09:02.010Z,99.99
2022-10-25T06:10:02.015Z,99.99
2022-10-25T06:11:01.992Z,99.99
2022-10-25T06:12:03.016Z,99.99
2022-10-25T06:13:01.989Z,99.99
2022-10-25T06:14:01.958Z,99.99
2022-10-25T06:15:01.950Z,99.99
2022-10-25T06:16:01.949Z,99.99
2022-10-25T06:17:01.922Z,99.99
2022-10-25T06:18:01.965Z,99.99
2022-10-25T06:19:01.903Z,99.99
2022-10-25T06:20:01.894Z,99.99
2022-10-25T06:21:01.880Z,99.99
2022-10-25T06:22:01.891Z,99.99
2022-10-25T06:23:01.859Z,99.99
2022-10-25T06:24:01.911Z,99.99
2022-10-25T06:25:01.859Z,99.99
2022-10-25T06:26:01.829Z,99.99
2022-10-25T06:27:01.822Z,99.99
2022-10-25T06:28:01.817Z,99.99
2022-10-25T06:29:01.817Z,99.99
2022-10-25T06:30:01.846Z,99.99
2022-10-25T06:31:01.775Z,99.99
2022-10-25T06:32:01.763Z,99.99
2022-10-25T06:33:01.754Z,99.99
2022-10-25T06:34:01.764Z,99.99
2022-10-25T06:35:01.742Z,99.99
2022-10-25T06:36:01.813Z,99.99
2022-10-25T06:37:01.710Z,99.99
2022-10-25T06:38:01.697Z,99.99
2022-10-25T06:39:05.837Z,99.99
2022-10-25T06:40:02.674Z,99.99
2022-10-25T06:41:01.672Z,99.99
2022-10-25T06:42:01.751Z,99.99
2022-10-25T06:43:01.651Z,99.99
2022-10-25T06:44:06.301Z,99.99
2022-10-25T06:45:02.657Z,99.99
2022-10-25T06:46:01.611Z,99.99
2022-10-25T06:47:18.096Z,99.99
2022-10-25T06:48:02.670Z,99.99
2022-10-25T06:49:01.593Z,99.99
2022-10-25T06:50:01.625Z,99.99
2022-10-25T06:51:01.560Z,99.99
2022-10-25T06:52:01.564Z,99.99
2022-10-25T06:53:01.537Z,99.99
2022-10-25T06:54:01.583Z,99.99
2022-10-25T06:55:01.514Z,99.99
2022-10-25T06:56:04.681Z,99.99
2022-10-25T06:57:01.505Z,99.99
2022-10-25T06:58:01.484Z,99.99
2022-10-25T06:59:01.471Z,99.99
2022-10-25T07:01:01.685Z,99.99
2022-10-25T07:02:01.606Z,99.99
2022-10-25T07:03:01.438Z,99.99
2022-10-25T07:04:01.415Z,99.99
2022-10-25T07:05:01.609Z,99.99
2022-10-25T07:06:01.398Z,99.99
2022-10-25T07:07:01.387Z,99.99
2022-10-25T07:08:01.372Z,99.99
2022-10-25T07:09:01.374Z,99.99
2022-10-25T07:10:01.349Z,99.99
2022-10-25T07:11:01.413Z,99.99
2022-10-25T07:12:01.328Z,99.99
2022-10-25T07:13:01.333Z,99.99
2022-10-25T07:14:01.329Z,99.99
2022-10-25T07:15:01.298Z,99.99
2022-10-25T07:16:01.287Z,99.99
2022-10-25T07:17:01.360Z,99.99
2022-10-25T07:18:01.264Z,99.99
2022-10-25T07:19:01.263Z,99.99
2022-10-25T07:20:01.253Z,99.99
2022-10-25T07:21:01.241Z,99.99
2022-10-25T07:22:01.226Z,99.99
2022-10-25T07:23:02.521Z,99.99
2022-10-25T07:24:01.203Z,99.99
2022-10-25T07:25:01.260Z,99.99
2022-10-25T07:26:01.195Z,99.99
2022-10-25T07:27:01.167Z,99.99
2022-10-25T07:28:01.156Z,99.99
2022-10-25T07:29:01.255Z,99.99
2022-10-25T07:30:01.134Z,99.99
2022-10-25T07:31:01.126Z,99.99
2022-10-25T07:32:01.125Z,99.99
2022-10-25T07:33:01.122Z,99.99
2022-10-25T07:34:01.091Z,99.99
2022-10-25T07:35:01.168Z,99.99
2022-10-25T07:36:11.393Z,99.99
2022-10-25T07:37:02.081Z,99.99
2022-10-25T07:38:01.052Z,99.99
2022-10-25T07:39:01.038Z,99.99
2022-10-25T07:40:01.026Z,99.99
2022-10-25T07:41:01.060Z,99.99
2022-10-25T07:42:01.016Z,99.99
2022-10-25T07:43:00.996Z,99.99
2022-10-25T07:44:00.985Z,99.99
2022-10-25T07:45:00.978Z,99.99
2022-10-25T07:46:00.964Z,99.99
2022-10-25T07:47:01.052Z,99.99
2022-10-25T07:48:00.939Z,99.99
2022-10-25T07:49:00.969Z,98.35
2022-10-25T07:50:00.917Z,98.91
2022-10-25T07:51:00.910Z,99.99
2022-10-25T07:52:01.006Z,97.32
2022-10-25T07:53:00.962Z,98.25
2022-10-25T07:54:00.877Z,97.45
2022-10-25T07:55:00.866Z,95.03
2022-10-25T07:56:00.854Z,98.32
2022-10-25T07:57:00.846Z,95.24
2022-10-25T07:58:00.857Z,96.67
2022-10-25T07:59:00.908Z,95.65
2022-10-25T08:00:00.818Z,94.46
2022-10-25T08:01:00.804Z,95.70
2022-10-25T08:02:00.786Z,96.38
2022-10-25T08:03:00.835Z,94.12
2022-10-25T08:04:00.778Z,94.43
2022-10-25T08:05:00.807Z,93.92
2022-10-25T08:06:00.746Z,94.33
2022-10-25T08:07:00.737Z,97.46
2022-10-25T08:08:00.735Z,95.98
2022-10-25T08:09:09.620Z,94.14
2022-10-25T08:10:01.718Z,93.77
2022-10-25T08:11:00.747Z,91.75
2022-10-25T08:12:00.685Z,92.47
2022-10-25T08:13:00.672Z,93.64
2022-10-25T08:14:00.660Z,96.78
2022-10-25T08:15:00.649Z,94.21
2022-10-25T08:16:00.649Z,92.72
2022-10-25T08:17:00.691Z,95.86
2022-10-25T08:18:00.617Z,96.32
2022-10-25T08:19:00.608Z,93.90
2022-10-25T08:20:00.594Z,94.32
2022-10-25T08:21:02.817Z,94.01
2022-10-25T08:22:00.585Z,93.02
2022-10-25T08:23:00.638Z,94.93
2022-10-25T08:24:00.550Z,95.54
2022-10-25T08:25:00.542Z,92.36
2022-10-25T08:26:00.531Z,97.30
2022-10-25T08:27:00.520Z,93.66
2022-10-25T08:28:00.520Z,95.20
2022-10-25T08:29:00.577Z,92.69
2022-10-25T08:30:00.484Z,93.04
2022-10-25T08:31:00.545Z,92.32
2022-10-25T08:32:00.471Z,93.25
2022-10-25T08:33:00.455Z,94.02
2022-10-25T08:34:00.536Z,94.74
2022-10-25T08:35:00.497Z,93.92
2022-10-25T08:36:00.436Z,91.05
2022-10-25T08:37:00.435Z,92.83
2022-10-25T08:38:00.404Z,91.36
2022-10-25T08:39:00.409Z,92.55
2022-10-25T08:40:00.455Z,92.65
2022-10-25T08:41:00.397Z,94.96
2022-10-25T08:42:00.375Z,92.66
2022-10-25T08:43:00.376Z,94.15
2022-10-25T08:45:00.431Z,89.86
2022-10-25T08:46:00.316Z,88.98
2022-10-25T08:47:00.309Z,90.92
2022-10-25T08:48:00.377Z,95.23
2022-10-25T08:49:00.287Z,89.41
2022-10-25T08:50:00.283Z,88.57
2022-10-25T08:51:00.323Z,90.27
2022-10-25T08:52:00.261Z,90.23
2022-10-25T08:53:00.257Z,90.12
2022-10-25T08:54:00.245Z,88.24
2022-10-25T08:55:03.280Z,88.85
2022-10-25T08:56:17.398Z,90.02
2022-10-25T08:57:14.937Z,89.11
2022-10-25T08:58:01.180Z,90.43
2022-10-25T08:59:00.186Z,89.26
2022-10-25T09:00:00.157Z,90.35
2022-10-25T09:01:00.233Z,90.20
2022-10-25T09:02:00.352Z,89.02
2022-10-25T09:03:00.235Z,90.00
2022-10-25T09:04:00.132Z,88.98
2022-10-25T09:05:00.111Z,88.85
2022-10-25T09:06:00.099Z,88.39
2022-10-25T09:07:00.088Z,91.00
2022-10-25T09:08:00.105Z,89.41
2022-10-25T09:09:00.093Z,89.06
2022-10-25T09:10:00.047Z,89.58
2022-10-25T09:11:00.038Z,89.37
2022-10-25T09:12:00.024Z,88.90
2022-10-25T09:13:00.027Z,90.08
2022-10-25T09:14:00.046Z,89.20
2022-10-25T09:14:59.992Z,89.06
2022-10-25T09:15:59.978Z,90.29
2022-10-25T09:16:59.974Z,89.02
2022-10-25T09:17:59.959Z,89.26
2022-10-25T09:18:59.959Z,89.43
2022-10-25T09:20:00.015Z,90.00
2022-10-25T09:20:59.926Z,87.85
2022-10-25T09:21:59.913Z,88.06
2022-10-25T09:22:59.905Z,88.88
2022-10-25T09:23:59.907Z,89.34
2022-10-25T09:24:59.900Z,85.53
2022-10-25T09:25:59.914Z,88.02
2022-10-25T09:26:59.867Z,90.43
2022-10-25T09:27:59.846Z,89.41
2022-10-25T09:28:59.860Z,88.90
2022-10-25T09:30:03.696Z,89.61
2022-10-25T09:31:00.814Z,89.98
2022-10-25T09:31:59.889Z,90.41
2022-10-25T09:32:59.792Z,87.90
2022-10-25T09:34:03.120Z,90.31
2022-10-25T09:34:59.769Z,89.04
2022-10-25T09:35:59.756Z,88.17
2022-10-25T09:36:59.750Z,87.76
2022-10-25T09:37:59.796Z,87.96
2022-10-25T09:38:59.727Z,88.00
2022-10-25T09:39:59.723Z,88.82
2022-10-25T09:40:59.733Z,87.32
2022-10-25T09:41:59.691Z,92.08
2022-10-25T09:42:59.738Z,90.51
2022-10-25T09:43:59.775Z,88.00
2022-10-25T09:44:59.674Z,88.65
2022-10-25T09:45:59.649Z,88.90
2022-10-25T09:46:59.637Z,89.56
2022-10-25T09:47:59.628Z,87.98
2022-10-25T09:48:59.617Z,90.23
2022-10-25T09:49:59.650Z,89.06
2022-10-25T09:50:59.606Z,87.98
2022-10-25T09:51:59.581Z,90.43
2022-10-25T09:54:00.557Z,88.85
2022-10-25T09:54:59.552Z,89.73
2022-10-25T09:55:59.572Z,88.92
2022-10-25T09:56:59.556Z,86.12
2022-10-25T09:57:59.518Z,87.85
2022-10-25T09:58:59.509Z,88.47
2022-10-25T09:59:59.495Z,88.20
2022-10-25T10:00:59.494Z,88.35
2022-10-25T10:01:59.645Z,88.51
2022-10-25T10:02:59.501Z,87.32
2022-10-25T10:04:00.100Z,88.04
2022-10-25T10:04:59.450Z,88.76
2022-10-25T10:05:59.428Z,89.58
2022-10-25T10:06:59.419Z,88.61
2022-10-25T10:07:59.485Z,88.96
2022-10-25T10:08:59.396Z,88.14
2022-10-25T10:09:59.386Z,88.51
2022-10-25T10:10:59.373Z,88.98
2022-10-25T10:11:59.363Z,88.65
2022-10-25T10:13:59.390Z,90.90
2022-10-25T10:14:59.342Z,89.98
2022-10-25T10:15:59.318Z,90.06
2022-10-25T10:16:59.308Z,88.37
2022-10-25T10:17:59.294Z,89.34
2022-10-25T10:18:59.326Z,88.84
2022-10-25T10:19:59.375Z,88.02
2022-10-25T10:20:59.281Z,89.00
2022-10-25T10:21:59.299Z,88.17
2022-10-25T10:22:59.257Z,88.82
2022-10-25T10:23:59.242Z,89.73
2022-10-25T10:24:59.221Z,88.61
2022-10-25T10:25:59.229Z,89.02
2022-10-25T10:26:59.239Z,90.92
2022-10-25T10:27:59.187Z,88.63
2022-10-25T10:28:59.212Z,88.53
2022-10-25T10:29:59.168Z,88.73
2022-10-25T10:30:59.160Z,87.71
2022-10-25T10:31:59.142Z,89.10
2022-10-25T10:32:59.198Z,88.59
2022-10-25T10:33:59.133Z,89.57
2022-10-25T10:34:59.137Z,87.67
2022-10-25T10:35:59.101Z,89.20
2022-10-25T10:36:59.092Z,89.30
2022-10-25T10:37:59.081Z,88.57
2022-10-25T10:38:59.139Z,90.31
2022-10-25T10:39:59.074Z,89.79
2022-10-25T10:40:59.062Z,89.90
2022-10-25T10:41:59.037Z,89.25
2022-10-25T10:42:59.313Z,89.45
2022-10-25T10:43:59.025Z,90.01
2022-10-25T10:44:59.058Z,88.55
2022-10-25T10:45:58.994Z,88.65
2022-10-25T10:46:58.982Z,86.59
2022-10-25T10:47:58.973Z,88.43
2022-10-25T10:48:58.961Z,88.90
2022-10-25T10:49:58.954Z,88.31
2022-10-25T10:50:59.139Z,89.22
2022-10-25T10:51:58.934Z,87.85
2022-10-25T10:53:00.118Z,87.38
2022-10-25T10:53:58.909Z,88.46
2022-10-25T10:54:58.897Z,85.33
2022-10-25T10:55:58.886Z,85.60
2022-10-25T10:56:58.951Z,85.25
2022-10-25T10:57:58.864Z,85.88
2022-10-25T10:58:58.851Z,88.22
2022-10-25T10:59:58.846Z,88.06
2022-10-25T11:00:58.864Z,85.74
2022-10-25T11:01:58.965Z,82.73
2022-10-25T11:02:58.915Z,85.31
2022-10-25T11:04:00.741Z,84.50
2022-10-25T11:04:58.786Z,85.23
2022-10-25T11:05:58.800Z,84.92
2022-10-25T11:06:58.767Z,84.05
2022-10-25T11:07:58.758Z,86.41
2022-10-25T11:08:58.833Z,83.15
2022-10-25T11:09:58.735Z,85.25
2022-10-25T11:10:58.722Z,82.95
2022-10-25T11:11:58.723Z,82.85
2022-10-25T11:12:58.716Z,80.88
2022-10-25T11:13:58.695Z,81.45
2022-10-25T11:14:58.728Z,81.62
2022-10-25T11:15:58.669Z,81.39
2022-10-25T11:16:58.778Z,78.75
2022-10-25T11:17:58.664Z,81.53
2022-10-25T11:18:58.646Z,81.93
2022-10-25T11:19:58.628Z,79.90
2022-10-25T11:20:58.647Z,81.77
2022-10-25T11:21:58.604Z,83.09
2022-10-25T11:23:01.269Z,80.11
2022-10-25T11:23:59.581Z,82.00
2022-10-25T11:24:58.568Z,80.10
2022-10-25T11:25:58.561Z,77.36
2022-10-25T11:26:58.600Z,79.42
2022-10-25T11:27:58.541Z,80.47
2022-10-25T11:28:58.550Z,80.44
2022-10-25T11:29:58.529Z,80.40
2022-10-25T11:30:58.503Z,77.56
2022-10-25T11:31:58.499Z,77.22
2022-10-25T11:32:58.656Z,77.66
2022-10-25T11:33:58.483Z,81.25
2022-10-25T11:34:58.459Z,79.93
2022-10-25T11:35:58.450Z,80.47
2022-10-25T11:36:58.441Z,80.51
2022-10-25T11:37:58.429Z,80.82
2022-10-25T11:38:58.547Z,81.05
2022-10-25T11:39:58.406Z,80.40
2022-10-25T11:40:58.395Z,79.08
2022-10-25T11:41:58.386Z,78.84
2022-10-25T11:42:58.376Z,80.40
2022-10-25T11:43:58.365Z,77.97
2022-10-25T11:44:58.419Z,79.22
2022-10-25T11:45:58.344Z,78.04
2022-10-25T11:46:58.331Z,79.66
2022-10-25T11:47:58.383Z,81.05
2022-10-25T11:48:58.433Z,80.50
2022-10-25T11:49:58.299Z,80.50
2022-10-25T11:50:58.336Z,79.96
2022-10-25T11:51:58.296Z,80.98
2022-10-25T11:52:58.555Z,81.49
2022-10-25T11:53:58.317Z,81.23
2022-10-25T11:54:58.241Z,82.28
2022-10-25T11:55:58.235Z,81.98
2022-10-25T11:56:58.217Z,83.87
2022-10-25T11:57:58.229Z,82.81
2022-10-25T11:58:58.240Z,80.07
2022-10-25T11:59:58.192Z,80.62
2022-10-25T12:00:58.174Z,82.54
2022-10-25T12:01:58.165Z,81.87
2022-10-25T12:02:58.211Z,83.62
2022-10-25T12:03:58.155Z,84.05
2022-10-25T12:04:58.250Z,82.39
2022-10-25T12:05:58.121Z,81.58
2022-10-25T12:06:58.108Z,82.84
2022-10-25T12:07:58.099Z,83.61
2022-10-25T12:08:58.086Z,82.86
2022-10-25T12:09:58.089Z,81.58
2022-10-25T12:10:58.130Z,83.51
2022-10-25T12:11:58.054Z,82.56
2022-10-25T12:12:58.042Z,81.01
2022-10-25T12:13:58.034Z,82.67
2022-10-25T12:14:58.047Z,82.81
2022-10-25T12:15:58.013Z,85.19
2022-10-25T12:16:58.045Z,85.60
2022-10-25T12:17:57.989Z,86.47
2022-10-25T12:18:57.976Z,83.81
2022-10-25T12:19:57.970Z,84.52
2022-10-25T12:20:58.082Z,85.43
2022-10-25T12:22:00.814Z,85.66
2022-10-25T12:22:58.011Z,84.64
2022-10-25T12:23:57.923Z,82.87
2022-10-25T12:24:57.925Z,85.29
2022-10-25T12:25:57.909Z,85.86
2022-10-25T12:26:57.889Z,86.33
2022-10-25T12:27:57.880Z,85.55
2022-10-25T12:28:57.942Z,84.84
2022-10-25T12:29:57.862Z,83.22
2022-10-25T12:30:57.847Z,84.58
2022-10-25T12:31:57.841Z,83.76
2022-10-25T12:32:57.825Z,84.88
2022-10-25T12:33:57.813Z,84.50
2022-10-25T12:34:57.871Z,83.54
2022-10-25T12:35:57.801Z,84.56
2022-10-25T12:36:57.895Z,83.57
2022-10-25T12:37:58.826Z,82.62
2022-10-25T12:38:57.757Z,79.85
2022-10-25T12:39:57.748Z,80.45
2022-10-25T12:40:57.843Z,80.25
2022-10-25T12:41:57.737Z,80.45
2022-10-25T12:42:57.711Z,81.50
2022-10-25T12:43:57.716Z,81.50
2022-10-25T12:44:57.705Z,80.53
2022-10-25T12:45:58.593Z,79.78
2022-10-25T12:46:57.722Z,80.39
2022-10-25T12:47:57.659Z,79.94
2022-10-25T12:48:57.647Z,79.58
2022-10-25T12:49:57.644Z,79.17
2022-10-25T12:50:57.636Z,79.07
2022-10-25T12:51:57.627Z,81.24
2022-10-25T12:52:57.761Z,79.04
2022-10-25T12:53:57.596Z,80.19
2022-10-25T12:54:57.581Z,80.30
2022-10-25T12:55:57.572Z,80.26
2022-10-25T12:56:57.559Z,79.14